East Genoa, New York
Current Conditions -  °F | °C
As of 11:35 AM on Wednesday 26 Nov 2014 (Local Time) from KN03 Reporting Station
Light Snow Light Snow  
Wind Chill: 32°   Ceiling: 1000
Heat Index: 32°   Visibility: 1.7mi
Dew Point: 30°   Wind: 3mph
Humidity: 93%   Direction: 40°NE
Pressure: 30.12"   Gusts: NA
Location:  42.6513°N, 76.421°W
Report Text: KN03 261635Z AUTO 04003KT 1 3/4SM -SN OVC010 00/M01 A3012 RMK AO2
Loading
Personal Weather Stations






























Interactive Weather Map New forecast layout! Learn more

10-Day Weather Forecast

Advertisements
Track Severe Weather on mobile